Tiempo atmosférico en la estación meteorológica de Ceuta, Ceuta (87 m.)

Fecha
DESCASC
Temp. máxima en grados centígrados (hora)
DESCASC
Temp. mínima en grados centígrados (hora)
DESCASC
Temp. media en grados centígrados
DESCASC
Racha de viento máxima en m/sg (hora)
DESCASC
Velocidad máxima media en intervalos de 10 minutos(hora)
DESCASC
Precipitaciones diarias en mm
DESCASC
Precipitaciones de 00:00 a 06:00 en mm
DESCASC
Precipitaciones de 06:00 a 12:00 en mm
DESCASC
Precipitaciones de 12:00 a 18:00 en mm
DESCASC
Precipitaciones de 18:00 a 24:00 en mm
DESCASC
21-08-2017 26.3 (15:00) 22.6 (06:20) 24.4 10 (13:20) 6.11 (13:10) 0 0 0 0 0
20-08-2017 27.4 (14:30) 23.3 (07:30) 25.3 10.28 (14:10) 5.56 (11:00) 0 0 0 0 0
19-08-2017 27.7 (17:30) 22.7 (06:10) 25.2 7.22 (18:00) 4.72 (16:40) 0 0 0 0 0
18-08-2017 28.5 (13:30) 22.9 (00:00) 25.7 6.94 (17:00) 4.44 (12:20) 0 0 0 0 0
17-08-2017 27.3 (15:10) 22.7 (00:00) 25 6.67 (14:20) 4.72 (14:10) 0 0 0 0 0
16-08-2017 26.8 (19:00) 20.9 (00:00) 23.8 6.94 (16:30) 5.56 (16:20) 0 0 0 0 0
15-08-2017 28 (16:40) 22.2 (00:00) 25.1 6.39 (04:40) 4.17 (12:20) 0 0 0 0 0
14-08-2017 25.4 (18:20) 22 (00:50) 23.7 9.44 (10:30) 5.56 (17:40) 0 0 0 0 0
13-08-2017 26.9 (13:10) 22 (00:00) 24.4 12.22 (12:40) 7.78 (14:00) 0 0 0 0 0
12-08-2017 27.2 (14:10) 22.1 (00:00) 24.7 11.67 (15:20) 6.67 (11:50) 0 0 0 0 0
11-08-2017 27.1 (15:10) 22.7 (00:00) 24.9 13.06 (14:20) 7.78 (14:40) 0 0 0 0 0
10-08-2017 27.2 (10:30) 22 (00:00) 24.6 11.67 (04:00) 5.28 (17:40) 0 0 0 0 0
09-08-2017 28.8 (11:00) 22 (00:00) 25.4 10.28 (12:40) 5 (18:00) 0 0 0 0 0
08-08-2017 33.7 (15:10) 22.8 (00:00) 28.3 12.22 (17:50) 6.11 (18:50) 0 0 0 0 0
07-08-2017 28.6 (15:10) 22 (00:00) 25.3 5.28 (16:10) 3.89 (15:40) 0 0 0 0 0
06-08-2017 29.1 (13:30) 23.8 (00:00) 26.4 7.5 (18:10) 5 (18:10) 0 0 0 0 0
05-08-2017 31.2 (16:50) 21.8 (00:00) 26.5 5.83 (17:40) 4.17 (17:40) 0 0 0 0 0
04-08-2017 33.3 (14:10) 20.5 (00:00) 26.9 6.39 (19:30) 4.72 (19:30) 0 0 0 0 0
03-08-2017 32.6 (15:10) 23.8 (00:00) 28.2 7.5 (02:20) 4.17 (17:30) 0 0 0 0 0
02-08-2017 34.3 (16:10) 21.8 (00:00) 28 7.22 (16:40) 5.28 (16:40) 0 0 0 0 0
01-08-2017 28 (17:20) 21.2 (00:00) 24.6 15 (03:30) 9.44 (03:20) 0 0 0 0 0
31-07-2017 33.5 (16:00) 23.6 (00:00) 28.6 14.72 (20:30) 8.89 (20:40) 0 0 0 0 0
30-07-2017 30.5 (14:50) 21.3 (00:00) 25.9 5.56 (17:00) 4.17 (17:00) 0 0 0 0 0
29-07-2017 32.6 (16:20) 22.5 (00:00) 27.5 6.11 (18:10) 4.17 (18:10) 0 0 0 0 0
28-07-2017 31.2 (14:20) 21.9 (00:00) 26.6 4.72 (16:20) 3.33 (16:30) 0 0 0 0 0
27-07-2017 26.8 (16:30) 21.5 (00:00) 24.1 6.11 (15:40) 4.17 (17:30) 0 0 0 0 0
26-07-2017 27.2 (15:40) 19.7 (00:00) 23.5 5.56 (19:50) 3.89 (19:10) 0 0 0 0 0
25-07-2017 32.3 (02:00) 22.3 (00:00) 27.3 10.28 (04:20) 5.83 (13:10) 0 0 0 0 0
24-07-2017 37.1 (14:30) 24.3 (00:00) 30.7 10.56 (23:40) 5.28 (23:40) 0 0 0 0 0
23-07-2017 30.6 (13:30) 21.4 (00:00) 26 5.28 (01:20) 2.78 (02:00) 0 0 0 0 0

Gráficas

Temp. máximas Temp. mínimas Temp. medias Precipitaciones Rachas de viento máximas Velocidades máximas media en intervalos de 10 minutos

Datos horarios

Fecha y hora oficial Temperatura (ºC) Velocidad del viento (km/h) Dirección del viento Racha (km/h) Dirección de racha Precipitación (mm) Presión (hPa) Tendencia (hPa) Humedad (%)
2017-08-21 23:00:00 23.7 15 Este 27 Este 0 1007.7 1.4 92
2017-08-21 22:00:00 23.7 15 Este 27 Este 0 1007 0.6 93
2017-08-21 21:00:00 23.9 16 Este 28 Este 0 1006.5 -0.1 91
2017-08-21 20:00:00 24.5 14 Este 28 Este 0 1006.3 -0.5 88
2017-08-21 19:00:00 25 17 Este 29 Este 0 1006.4 -1.1 86
2017-08-21 18:00:00 24.9 14 Este 29 Este 0 1006.6 -1.3 84
2017-08-21 17:00:00 25.9 15 Este 31 Este 0 1006.8 -1.5 82
2017-08-21 16:00:00 25.9 20 Este 33 Sudeste 0 1007.5 -0.8 81
2017-08-21 15:00:00 26.1 18 Este 33 Este 0 1007.9 -0.6 81
2017-08-21 14:00:00 25.7 16 Este 36 Este 0 1008.3 -0.1 82
2017-08-21 13:00:00 25.7 20 Este 32 Este 0 1008.3 0.2 84
2017-08-21 12:00:00 24.9 18 Este 34 Este 0 1008.5 0.6 88
2017-08-21 11:00:00 24.5 18 Este 33 Este 0 1008.4 0.7 89
2017-08-21 10:00:00 24.2 14 Este 27 Sudeste 0 1008.1 0.7 90
2017-08-21 09:00:00 24.1 17 Este 33 Este 0 1007.9 0.4 90
2017-08-21 08:00:00 23.1 11 Este 21 Este 0 1007.7 0 95
2017-08-21 07:00:00 22.9 10 Este 26 Nordeste 0 1007.4 -0.7 96
2017-08-21 06:00:00 23 14 Nordeste 27 Este 0 1007.5 -0.7 96
2017-08-21 05:00:00 23.4 10 Este 23 Este 0 1007.7 -1 94
2017-08-21 04:00:00 23.4 10 Nordeste 21 Este 0 1008.1 -0.4 95
2017-08-21 03:00:00 23.5 10 Nordeste 23 Este 0 1008.2 -0.1 95
2017-08-21 02:00:00 23.9 10 Este 22 Este 0 1008.7 0.5 95
2017-08-21 01:00:00 23.8 11 Este 25 Este 0 1008.5 0.6 95
2017-08-21 00:00:00 24 12 Este 25 Este 0 1008.3 1 95
2017-08-20 23:00:00 23.8 13 Este 24 Este 0 1008.2 1.3 95
2017-08-20 22:00:00 23.6 14 Este 25 Este 0 1007.9 0.5 95
2017-08-20 21:00:00 23.9 12 Este 23 Sudeste 0 1007.3 -0.4 92
2017-08-20 20:00:00 24.8 17 Este 26 Este 0 1006.9 -1.3 89
2017-08-20 19:00:00 25.3 17 Este 31 Este 0 1007.4 -1.2 87
2017-08-20 18:00:00 26.5 18 Este 32 Este 0 1007.7 -1.2 82
2017-08-20 17:00:00 26.7 17 Este 30 Sudeste 0 1008.2 -0.7 81
2017-08-20 16:00:00 27.1 17 Este 33 Este 0 1008.6 -0.2 79
2017-08-20 15:00:00 27.3 16 Este 37 Este 0 1008.9 0.2 78
2017-08-20 14:00:00 26.8 17 Este 34 Este 0 1008.9 0.4 79
2017-08-20 13:00:00 24.8 17 Nordeste 27 Nordeste 0 1008.8 0.7 86
2017-08-20 12:00:00 24.6 17 Nordeste 29 Este 0 1008.7 1 87
2017-08-20 11:00:00 24.2 20 Nordeste 31 Nordeste 0 1008.5 1.2 91
2017-08-20 10:00:00 24 12 Nordeste 21 Nordeste 0 1008.1 1.2 92
2017-08-20 09:00:00 23.5 10 Nordeste 21 Nordeste 0 1007.7 1 94
2017-08-20 08:00:00 23.4 10 Este 24 Este 0 1007.3 0.4 96
2017-08-20 07:00:00 23.4 12 Nordeste 22 Este 0 1006.9 -0.1 94
2017-08-20 06:00:00 23.9 11 Este 26 Este 0 1006.7 -0.3 93
2017-08-20 05:00:00 24 13 Este 22 Este 0 1006.9 -0.3 91
2017-08-20 04:00:00 24.1 12 Este 19 Este 0 1007 -0.3 91
2017-08-20 03:00:00 23.8 10 Este 23 Sudeste 0 1007 -0.2 91
2017-08-20 02:00:00 23.8 15 Este 23 Este 0 1007.2 0.3 91
2017-08-20 01:00:00 23.6 14 Este 27 Este 0 1007.3 1.1 91
2017-08-20 00:00:00 23.5 14 Este 22 Este 0 1007.2 1.5 91
2017-08-19 23:00:00 23.4 10 Este 17 Este 0 1006.9 1.4 93
2017-08-19 22:00:00 23.9 8 Sudeste 17 Sudeste 0 1006.2 0.7 92
2017-08-19 21:00:00 23.8 7 Sudeste 12 Sudeste 0 1005.7 -0.1 91
2017-08-19 20:00:00 24.6 9 Sur 21 Sur 0 1005.5 -0.4 88
2017-08-19 19:00:00 26.2 13 Sudeste 26 Este 0 1005.5 -0.7 81
2017-08-19 18:00:00 26.9 17 Este 26 Este 0 1005.8 -0.7 79
2017-08-19 17:00:00 27.2 17 Este 25 Este 0 1005.9 -0.8 77
2017-08-19 16:00:00 27 13 Sudeste 21 Sudeste 0 1006.2 -0.2 77
2017-08-19 15:00:00 26.3 12 Sudeste 21 Sudeste 0 1006.5 0.4 80
2017-08-19 14:00:00 25.2 12 Sudeste 19 Sur 0 1006.7 1 85
2017-08-19 13:00:00 25.6 13 Sudeste 19 Sudeste 0 1006.4 1.2 82
2017-08-19 12:00:00 25.2 10 Sur 18 Sur 0 1006.1 1.2 85
2017-08-19 11:00:00 24.3 6 Sur 14 Sur 0 1005.7 1.2 88
2017-08-19 10:00:00 23.4 10 Sur 18 Sur 0 1005.2 1.1 91
2017-08-19 09:00:00 23.3 11 Sur 17 Sudoeste 0 1004.9 0.9 92
2017-08-19 08:00:00 22.8 8 Sur 14 Sur 0 1004.5 0.1 93
2017-08-19 07:00:00 22.9 7 Sur 13 Sur 0 1004.1 -0.4 94
2017-08-19 06:00:00 22.8 7 Sudoeste 14 Sur 0 1004 -0.8 93
2017-08-19 05:00:00 23.1 5 Sudoeste 13 Sudoeste 0 1004.4 -0.8 93
2017-08-19 04:00:00 23.3 7 Sur 13 Sur 0 1004.5 -0.9 94
2017-08-19 03:00:00 23.4 6 Sur 14 Sur 0 1004.8 -0.8 94
2017-08-19 02:00:00 23.4 9 Sur 15 Sur 0 1005.2 -0.2 95
2017-08-19 01:00:00 23.5 9 Sur 14 Sudoeste 0 1005.4 0.4 95
2017-08-19 00:00:00 23.6 5 Sur 9 Sur 0 1005.6 1.1 95
2017-08-18 23:00:00 23.6 7 Sur 11 Sudeste 0 1005.4 1.2 95
2017-08-18 22:00:00 24 9 Sur 12 Sur 0 1005 0.6 94
2017-08-18 21:00:00 24.2 8 Sudeste 14 Sur 0 1004.5 -0.3 92
2017-08-18 20:00:00 24.5 9 Sudeste 19 Sur 0 1004.2 -1.4 92
2017-08-18 19:00:00 25.8 13 Sur 23 Sur 0 1004.4 -1.9 85
2017-08-18 18:00:00 26 12 Sur 22 Sudeste 0 1004.8 -2.1 82
2017-08-18 17:00:00 27.6 14 Este 25 Este 0 1005.6 -1.5 75
2017-08-18 16:00:00 28.3 13 Este 23 Sudeste 0 1006.3 -1.2 71
2017-08-18 15:00:00 28.2 14 Este 25 Este 0 1006.9 -0.7 67
2017-08-18 14:00:00 27.1 13 Nordeste 21 Sudeste 0 1007.1 -0.3 74
2017-08-18 13:00:00 27.8 13 Este 24 Sudeste 0 1007.5 0.4 72
2017-08-18 12:00:00 26.9 13 Este 23 Sudeste 0 1007.6 0.9 76
2017-08-18 11:00:00 25.8 11 Este 23 Este 0 1007.4 0.9 81
2017-08-18 10:00:00 25 11 Este 19 Este 0 1007.1 0.9 85
2017-08-18 09:00:00 24.3 10 Este 17 Sudeste 0 1006.7 0.5 86
2017-08-18 08:00:00 23.6 6 Este 14 Este 0 1006.5 0.2 88
2017-08-18 07:00:00 23.4 8 Este 16 Este 0 1006.2 -0.5 93
2017-08-18 06:00:00 23.2 10 Este 16 Este 0 1006.2 -0.7 95
2017-08-18 05:00:00 23.1 9 Este 19 Este 0 1006.3 -1 95
2017-08-18 04:00:00 23.4 11 Este 17 Este 0 1006.7 -0.8 95
2017-08-18 03:00:00 23.6 10 Este 19 Este 0 1006.9 -0.8 94
2017-08-18 02:00:00 23.1 5 Nordeste 13 Este 0 1007.3 -0.2 95
2017-08-18 01:00:00 23.1 6 Nordeste 12 Nordeste 0 1007.5 0.6 97
2017-08-18 00:00:00 22.9 7 Nordeste 13 Sudeste 0 1007.7 1.2 97
2017-08-17 23:00:00 22.7 7 Sur 13 Sur 0 1007.5 1.1 97
2017-08-17 22:00:00 23.7 8 Sur 17 Sur 0 1006.9 0.3 94
2017-08-17 21:00:00 24 11 Sur 18 Sur 0 1006.5 -0.4 92
2017-08-17 20:00:00 24.6 11 Sur 18 Sudeste 0 1006.4 -0.8 88
2017-08-17 19:00:00 25.4 11 Sudeste 18 Sur 0 1006.6 -1.3 83
2017-08-17 18:00:00 26 12 Sudeste 23 Sudeste 0 1006.9 -1.5 78
2017-08-17 17:00:00 26.6 12 Sudeste 20 Sudeste 0 1007.2 -1.7 75
2017-08-17 16:00:00 26.8 12 Este 23 Este 0 1007.9 -1.3 75
2017-08-17 15:00:00 26.8 15 Este 24 Este 0 1008.4 -0.8 74
2017-08-17 14:00:00 26.4 17 Este 23 Este 0 1008.9 0.1 80
2017-08-17 13:00:00 25.2 13 Nordeste 20 Nordeste 0 1009.2 0.8 83
2017-08-17 12:00:00 25.2 11 Nordeste 17 Este 0 1009.2 1.2 84
2017-08-17 11:00:00 24.7 8 Nordeste 13 Este 0 1008.8 1.2 84
2017-08-17 10:00:00 24.1 6 Sudeste 14 Este -- 1008.4 1.4 87
2017-08-17 09:00:00 23.3 8 Este 15 Este 0 1008 1.1 90
2017-08-17 08:00:00 23 6 Sudeste 10 Sudeste 0 1007.6 0.8 94
2017-08-17 07:00:00 23.1 6 Sudeste 12 Sudeste 0 1007 0.1 94
2017-08-17 06:00:00 23.2 5 Sudeste 10 Sur 0 1006.9 -0.3 93
2017-08-17 05:00:00 23.2 5 Sudeste 10 Este 0 1006.8 -0.7 93
2017-08-17 04:00:00 23 5 Este 10 Sur 0 1006.9 -0.9 96
2017-08-17 03:00:00 23 4 Sudoeste 9 Sur 0 1007.2 -0.4 97
2017-08-17 02:00:00 22.7 5 Sudoeste 10 Sur 0 1007.5 0.1 97
2017-08-17 01:00:00 22.8 6 Sur 10 Sur 0 1007.8 0.9 96
2017-08-17 00:00:00 23.5 4 Sur 10 Sur 0 1007.6 0.9 93
2017-08-16 23:00:00 24 6 Sur 11 Sur 0 1007.4 0.8 91
2017-08-16 22:00:00 24.5 7 Sur 11 Sur 0 1006.9 0.3 88
2017-08-16 21:00:00 24.7 9 Sur 14 Sur 0 1006.7 -0.1 88
2017-08-16 20:00:00 25.4 9 Sur 15 Sur 0 1006.6 -0.5 83
2017-08-16 19:00:00 26.7 9 Sur 18 Sur 0 1006.6 -0.9 75
2017-08-16 18:00:00 26.3 13 Sur 21 Sur 0 1006.8 -1.3 78
2017-08-16 17:00:00 26 14 Sur 25 Sur 0 1007.1 -1.5 80
2017-08-16 16:00:00 25.5 17 Sur 22 Sur 0 1007.5 -1.4 82
2017-08-16 15:00:00 24.6 14 Sur 19 Sur 0 1008.1 -0.9 85
2017-08-16 14:00:00 24.5 12 Sur 18 Sur 0 1008.6 -0.3 85
2017-08-16 13:00:00 24.1 12 Sur 18 Sur 0 1008.9 0.2 85
2017-08-16 12:00:00 23.4 13 Sur 18 Sur 0 1009 0.5 89
2017-08-16 11:00:00 22.6 12 Sur 15 Sur 0 1008.9 0.8 92
2017-08-16 10:00:00 22.3 2 Sudeste 6 Nordeste 0 1008.7 1 99
2017-08-16 09:00:00 21.3 2 Este 9 Sur 0 1008.5 1.1 99
2017-08-16 08:00:00 21.1 6 Sur 11 Sur 0 1008.1 0.7 99
2017-08-16 07:00:00 21.3 0 Calma 6 Nordeste 0 1007.7 0 98
2017-08-16 06:00:00 21.4 3 Noroeste 8 Noroeste 0 1007.4 -0.6 98
2017-08-16 05:00:00 21.3 4 Norte 8 Norte 0 1007.4 -1 94
2017-08-16 04:00:00 22.2 2 Noroeste 5 Nordeste 0 1007.7 -0.7 90
2017-08-16 03:00:00 23.3 4 Sur 8 Sudoeste 0 1008 -0.3 86
2017-08-16 02:00:00 23.2 6 Sudoeste 10 Sudoeste 0 1008.4 0.3 88
2017-08-16 01:00:00 23.3 8 Sudoeste 13 Sudoeste 0 1008.4 0.9 89
2017-08-16 00:00:00 23.6 8 Sur 13 Sur 0 1008.3 1.2 89
2017-08-15 23:00:00 23.8 7 Sur 12 Sur 0 1008.1 1.3 90
2017-08-15 22:00:00 24 8 Sur 13 Sur 0 1007.5 0.7 90
2017-08-15 21:00:00 24.4 8 Sur 14 Sur 0 1007.1 0.2 87
2017-08-15 20:00:00 24.7 12 Sur 16 Sur 0 1006.8 -0.4 85
2017-08-15 19:00:00 25.5 10 Sur 18 Sur 0 1006.8 -0.6 82
2017-08-15 18:00:00 27 6 Nordeste 14 Norte 0 1006.9 -0.6 76
2017-08-15 17:00:00 26.1 7 Norte 20 Este 0 1007.2 -0.4 80
2017-08-15 16:00:00 27.2 14 Este 21 Este 0 1007.4 -0.5 77
2017-08-15 15:00:00 25.5 10 Nordeste 16 Norte 0 1007.5 -0.1 82
2017-08-15 14:00:00 25.6 8 Nordeste 18 Nordeste 0 1007.6 0.1 81
2017-08-15 13:00:00 25.6 13 Este 22 Este 0 1007.9 0.7 85
2017-08-15 12:00:00 23.9 5 Nordeste 11 Este 0 1007.6 0.6 88
2017-08-15 11:00:00 22.9 7 Nordeste 11 Norte 0 1007.5 0.9 91
2017-08-15 10:00:00 23.8 7 Este 15 Sudeste 0 1007.2 1.3 89
2017-08-15 09:00:00 22.5 3 Noroeste 8 Noroeste 0 1007 1.4 94
2017-08-15 08:00:00 22.3 5 Norte 10 Norte 0 1006.6 0.9 93
2017-08-15 07:00:00 22.5 4 Norte 11 Nordeste 0 1005.9 -0.1 94
2017-08-15 06:00:00 22.3 4 Norte 17 Este 0 1005.6 -0.7 95
2017-08-15 05:00:00 22.8 13 Este 23 Este 0 1005.7 -0.9 94
2017-08-15 04:00:00 22.9 11 Este 20 Este 0 1006 -0.8 94
2017-08-15 03:00:00 23.1 12 Este 22 Este 0 1006.3 -0.2 93
2017-08-15 02:00:00 22.7 8 Este 20 Nordeste 0 1006.6 0.8 94
2017-08-15 01:00:00 22.6 10 Nordeste 21 Este 0 1006.8 1.7 94
2017-08-15 00:00:00 23.4 11 Este 17 Sudeste 0 1006.5 1.8 92
2017-08-14 23:00:00 23.2 10 Sudeste 19 Sudeste 0 1005.8 1.3 93
2017-08-14 22:00:00 23.1 10 Sudeste 16 Sudeste 0 1005.1 0.6 92
2017-08-14 21:00:00 22.7 9 Sudeste 18 Sudeste 0 1004.7 0.1 92
2017-08-14 20:00:00 22.9 10 Sudeste 20 Sudeste 0 1004.5 -0.2 89
2017-08-14 19:00:00 23.7 10 Sudeste 27 Este 0 1004.5 -0.5 87
2017-08-14 18:00:00 25 18 Este 31 Este 0 1004.6 -0.6 81
2017-08-14 17:00:00 25.1 18 Este 31 Este 0 1004.7 -1 81
2017-08-14 16:00:00 25.1 14 Este 30 Este 0 1005 -0.8 80
2017-08-14 15:00:00 24.9 17 Este 28 Nordeste 0 1005.2 -0.4 81
2017-08-14 14:00:00 24.6 12 Este 32 Este 0 1005.7 0.4 82
2017-08-14 13:00:00 24.6 19 Este 31 Este 0 1005.8 0.8 84
2017-08-14 12:00:00 22.7 12 Nordeste 23 Este 0 1005.6 0.9 90
2017-08-14 11:00:00 22.6 15 Este 34 Este 0 1005.3 0.8 92
2017-08-14 10:00:00 22.9 14 Este 27 Este 0 1005 0.8 89
2017-08-14 09:00:00 23 16 Este 28 Sudeste 0 1004.7 0.6 90
2017-08-14 08:00:00 22.8 18 Este 31 Este 0 1004.5 -0.1 91
2017-08-14 07:00:00 22.6 17 Este 28 Este 0 1004.2 -0.7 92
2017-08-14 06:00:00 22.6 14 Este 25 Este 0 1004.1 -1.1 92
2017-08-14 05:00:00 22.5 17 Este 29 Este 0 1004.6 -1 92
2017-08-14 04:00:00 22.2 13 Este 27 Nordeste 0 1004.9 -1.1 92
2017-08-14 03:00:00 22.2 14 Este 26 Nordeste 0 1005.2 -0.7 92
2017-08-14 02:00:00 22.2 15 Nordeste 26 Nordeste 0 1005.6 0 92
2017-08-14 01:00:00 22.1 16 Este 27 Este 0 1006 0.9 93
2017-08-14 00:00:00 22.2 16 Nordeste 28 Este 0 1005.9 1.1 93
2017-08-13 23:00:00 22.8 14 Este 26 Este 0 1005.6 1.1 92
2017-08-13 22:00:00 22.8 13 Este 22 Este 0 1005.1 0.5 91
2017-08-13 21:00:00 22.9 13 Este 25 Este 0 1004.8 -0.1 90
2017-08-13 20:00:00 23.2 17 Este 30 Este 0 1004.5 -0.7 87
2017-08-13 19:00:00 24.3 16 Este 34 Este 0 1004.6 -1.1 82
2017-08-13 18:00:00 25 19 Este 37 Este 0 1004.9 -1.2 78
2017-08-13 17:00:00 25.2 20 Este 37 Este 0 1005.2 -1.3 76
2017-08-13 16:00:00 25.5 23 Este 44 Este 0 1005.7 -1.1 75
2017-08-13 15:00:00 25.9 22 Este 42 Este 0 1006.1 -0.8 73
2017-08-13 14:00:00 26.3 28 Este 42 Este 0 1006.5 -0.5 71
2017-08-13 13:00:00 26.8 21 Este 44 Este 0 1006.8 -0.1 70
2017-08-13 12:00:00 25.9 22 Este 40 Este 0 1006.9 0.5 74
2017-08-13 11:00:00 25.1 21 Este 37 Sudeste 0 1007 0.9 78
2017-08-13 10:00:00 24.2 19 Este 32 Este 0 1006.9 0.9 84
2017-08-13 09:00:00 23.2 18 Este 31 Este 0 1006.4 0.2 90
2017-08-13 08:00:00 22.4 19 Este 30 Este 0 1006.1 -0.5 93
2017-08-13 07:00:00 22.1 13 Este 26 Este 0 1006 -1 93
2017-08-13 06:00:00 22.1 15 Este 27 Este 0 1006.2 -1.3 93
2017-08-13 05:00:00 22.1 13 Este 24 Este 0 1006.6 -1.4 93
2017-08-13 04:00:00 22 15 Este 28 Este 0 1007 -1.2 93
2017-08-13 03:00:00 22.1 13 Este 26 Este 0 1007.5 -0.6 93
2017-08-13 02:00:00 22.2 13 Este 26 Sudeste 0 1008 -0.1 91
2017-08-13 01:00:00 22.3 14 Este 21 Este 0 1008.2 0.5 91
2017-08-13 00:00:00 22.2 12 Este 20 Este 0 1008.1 0.5 93
2017-08-12 23:00:00 22.3 13 Sudeste 21 Sudeste 0 1008.1 0.4 92
2017-08-12 22:00:00 22.2 14 Este 28 Este 0 1007.7 -0.3 92
2017-08-12 21:00:00 22.8 19 Este 28 Sudeste 0 1007.6 -0.6 88
2017-08-12 20:00:00 23.7 17 Sudeste 33 Este 0 1007.7 -0.7 83
2017-08-12 19:00:00 25 21 Sudeste 32 Sudeste 0 1008 -0.8 77
2017-08-12 18:00:00 26.2 20 Sudeste 36 Sudeste 0 1008.2 -0.9 72
2017-08-12 17:00:00 26.3 21 Este 40 Este 0 1008.4 -0.9 71
2017-08-12 16:00:00 26.2 21 Este 42 Este 0 1008.8 -0.6 70
2017-08-12 15:00:00 26.7 21 Este 39 Sudeste 0 1009.1 -0.3 69
2017-08-12 14:00:00 26.9 20 Este 39 Este 0 1009.3 0.1 69
2017-08-12 13:00:00 26.3 21 Este 41 Este 0 1009.4 0.3 70
2017-08-12 12:00:00 26 19 Este 41 Este 0 1009.4 0.5 74
2017-08-12 11:00:00 24.7 19 Este 35 Sudeste 0 1009.2 0.7 80
2017-08-12 10:00:00 24 19 Este 34 Este 0 1009.1 1 83
2017-08-12 09:00:00 22.5 19 Este 37 Este 0 1008.9 1 90
2017-08-12 08:00:00 22.5 17 Este 32 Este 0 1008.5 0.6 93
2017-08-12 07:00:00 22.3 16 Este 30 Este 0 1008.1 0 92
2017-08-12 06:00:00 22.5 14 Este 26 Este 0 1007.9 -0.4 94
2017-08-12 05:00:00 22.5 15 Este 25 Este 0 1007.9 -0.6 95
2017-08-12 04:00:00 22.6 13 Este 25 Este 0 1008.1 -0.5 94
2017-08-12 03:00:00 22.5 12 Este 22 Este 0 1008.3 -0.2 94
2017-08-12 02:00:00 22.4 14 Sudeste 21 Sudeste 0 1008.5 0.1 93
2017-08-12 01:00:00 22.6 12 Sudeste 21 Este 0 1008.6 0.7 93
2017-08-12 00:00:00 22.9 12 Sudeste 26 Este 0 1008.5 1.2 91
2017-08-11 23:00:00 22.9 12 Sudeste 23 Sudeste 0 1008.4 1.4 91
2017-08-11 22:00:00 23 13 Sudeste 22 Sur 0 1007.9 1 91
2017-08-11 21:00:00 23.5 12 Sudeste 25 Sudeste 0 1007.3 0.1 87
2017-08-11 20:00:00 23.8 15 Sudeste 29 Este 0 1007 -0.7 85
2017-08-11 19:00:00 24.2 18 Este 32 Este 0 1006.9 -1.2 82
2017-08-11 18:00:00 25.6 22 Este 37 Este 0 1007.2 -1 75
2017-08-11 17:00:00 26.1 24 Este 42 Este 0 1007.7 -0.9 71
2017-08-11 16:00:00 26.4 25 Este 44 Este 0 1008.1 -0.8 69
2017-08-11 15:00:00 26.6 25 Este 47 Este 0 1008.2 -0.9 68
2017-08-11 14:00:00 25.9 23 Este 46 Este 0 1008.6 -0.2 74
2017-08-11 13:00:00 25.4 17 Este 41 Nordeste 0 1008.9 0.5 79
2017-08-11 12:00:00 25 18 Este 38 Este 0 1009.1 0.8 80
2017-08-11 11:00:00 24.4 18 Este 40 Este 0 1008.8 0.8 83
2017-08-11 10:00:00 25.4 17 Este 35 Sudeste 0 1008.4 0.4 78
2017-08-11 09:00:00 23.5 21 Este 35 Este 0 1008.3 0.2 86
2017-08-11 08:00:00 22.9 18 Este 33 Este 0 1008 -0.4 88
2017-08-11 07:00:00 22.9 20 Este 36 Este 0 1008 -0.7 86
2017-08-11 06:00:00 22.8 18 Este 33 Sudeste 0 1008.1 -1.1 93
2017-08-11 05:00:00 22.9 18 Este 32 Nordeste 0 1008.4 -1.3 93
2017-08-11 04:00:00 22.9 18 Este 29 Sudeste 0 1008.7 -1.1 93
2017-08-11 03:00:00 23 16 Este 28 Este 0 1009.2 -0.7 92
2017-08-11 02:00:00 23.1 16 Este 28 Este 0 1009.7 0.1 91
2017-08-11 01:00:00 23.1 17 Este 28 Este 0 1009.8 0.7 91
2017-08-11 00:00:00 23.1 18 Este 31 Este 0 1009.9 1.1 90
2017-08-10 23:00:00 23.2 15 Este 28 Sudeste 0 1009.6 0.9 89
2017-08-10 22:00:00 23.3 14 Sudeste 29 Sudeste 0 1009.1 0.5 88
2017-08-10 21:00:00 23.2 18 Este 33 Este 0 1008.8 0.2 88
2017-08-10 20:00:00 23.8 18 Este 32 Este 0 1008.7 0.1 85
2017-08-10 19:00:00 24.3 18 Este 31 Este 0 1008.6 -0.3 82
2017-08-10 18:00:00 24.9 17 Este 35 Este 0 1008.6 -0.1 80
2017-08-10 17:00:00 23.1 13 Nordeste 22 Nordeste 0 1008.6 0 84
2017-08-10 16:00:00 24.3 13 Nordeste 24 Nordeste 0 1008.9 0.5 76
2017-08-10 15:00:00 24.2 12 Nordeste 23 Norte 0 1008.7 0.7 74
2017-08-10 14:00:00 24.5 14 Norte 27 Norte 0 1008.6 1.2 73
2017-08-10 13:00:00 25.4 14 Norte 31 Norte 0 1008.4 1.5 65
2017-08-10 12:00:00 26.5 14 Norte 28 Noroeste 0 1008 1.7 56
2017-08-10 11:00:00 27.1 13 Noroeste 23 Noroeste 0 1007.4 2.1 45
2017-08-10 10:00:00 26.1 9 Noroeste 27 Noroeste 0 1006.9 2 40
2017-08-10 09:00:00 24.6 5 Sudeste 10 Sudeste 0 1006.3 2.3 43
2017-08-10 08:00:00 22.3 4 Noroeste 7 Noroeste 0 1005.3 1.3 47
2017-08-10 07:00:00 22.8 5 Norte 33 Noroeste 0 1004.9 0.9 44
2017-08-10 06:00:00 23.7 18 Noroeste 39 Oeste 0 1004 -0.3 40
2017-08-10 05:00:00 24.2 17 Oeste 41 Noroeste 0 1004 -0.6 38
2017-08-10 04:00:00 24 17 Oeste 42 Oeste 0 1004 -0.5 37
2017-08-10 03:00:00 24 15 Oeste 33 Oeste 0 1004.3 -0.4 36
2017-08-10 02:00:00 23.9 13 Oeste 32 Oeste 0 1004.6 -0.3 38
2017-08-10 01:00:00 24.3 13 Oeste 31 Noroeste 0 1004.5 0.2 39
2017-08-10 00:00:00 22.8 11 Sudoeste 28 Oeste 0 1004.7 0.9 46
2017-08-09 23:00:00 22.3 5 Sudoeste 17 Sudeste 0 1004.9 1.1 45
2017-08-09 22:00:00 23.4 4 Sudoeste 27 Oeste 0 1004.3 0.3 34
2017-08-09 21:00:00 23.6 9 Oeste 26 Sudoeste 0 1003.8 -0.7 36
2017-08-09 20:00:00 25.2 12 Sudoeste 29 Sur 0 1003.8 -1 41
2017-08-09 19:00:00 26.2 12 Sudoeste 31 Sudoeste 0 1004 -1.4 33
2017-08-09 18:00:00 26.3 18 Sudoeste 33 Sudoeste 0 1004.5 -1.1 42
2017-08-09 17:00:00 27 13 Sudoeste 32 Oeste 0 1004.8 -0.9 39
2017-08-09 16:00:00 27.1 9 Oeste 33 Oeste 0 1005.4 -0.3 45
2017-08-09 15:00:00 26.6 11 Oeste 32 Noroeste 0 1005.6 -0.2 52
2017-08-09 14:00:00 26.7 14 Oeste 37 Oeste 0 1005.7 0 54
2017-08-09 13:00:00 27.2 13 Oeste 37 Sudoeste 0 1005.7 0.1 54
2017-08-09 12:00:00 27.4 12 Oeste 31 Oeste 0 1005.8 0.6 50
2017-08-09 11:00:00 28.8 6 Oeste 17 Oeste 0 1005.7 0.6 41
2017-08-09 10:00:00 27.4 8 Oeste 23 Noroeste 0 1005.6 0.7 43
2017-08-09 09:00:00 24.9 11 Oeste 26 Oeste 0 1005.2 0.7 52
2017-08-09 08:00:00 22.4 9 Oeste 19 Oeste 0 1005.1 0.4 59
2017-08-09 07:00:00 22.2 8 Oeste 22 Oeste 0 1004.9 0 60
2017-08-09 06:00:00 23 9 Sudoeste 24 Oeste 0 1004.5 -0.5 57
2017-08-09 05:00:00 23.5 10 Sudoeste 25 Sudoeste 0 1004.7 -0.4 53
2017-08-09 04:00:00 24.2 16 Sudoeste 27 Sur 0 1004.9 -0.2 46
2017-08-09 03:00:00 24.8 10 Sudoeste 26 Sudoeste 0 1005 0.1 38
2017-08-09 02:00:00 24.6 15 Sudoeste 27 Sudoeste 0 1005.1 0.4 40
2017-08-09 01:00:00 24.8 15 Sudoeste 28 Sur 0 1005.1 1 40
2017-08-09 00:00:00 25.6 9 Sudoeste 19 Sudoeste 0 1004.9 1.5 37
2017-08-08 23:00:00 25.8 5 Sudeste 36 Sudoeste 0 1004.7 2.1 40
2017-08-08 22:00:00 27.1 12 Noroeste 29 Oeste 0 1004.1 1.8 30
2017-08-08 21:00:00 27.7 12 Oeste 36 Noroeste 0 1003.4 0.9 29
2017-08-08 20:00:00 28.7 15 Oeste 41 Oeste 0 1002.6 -0.2 26
2017-08-08 19:00:00 30.1 21 Oeste 43 Noroeste 0 1002.3 -0.9 26
2017-08-08 18:00:00 32 19 Oeste 44 Oeste 0 1002.5 -0.6 22
2017-08-08 17:00:00 32.7 16 Oeste 44 Noroeste 0 1002.8 -0.7 19
2017-08-08 16:00:00 32.6 10 Noroeste 31 Norte 0 1003.2 -0.2 18
2017-08-08 15:00:00 33 9 Sudeste 27 Este 0 1003.1 -0.3 14
2017-08-08 14:00:00 33 9 Sur 26 Nordeste 0 1003.5 0.3 17
2017-08-08 13:00:00 33.3 8 Este 24 Este 0 1003.4 0.4 20
2017-08-08 12:00:00 32.6 10 Este 19 Este 0 1003.4 0.6 24
2017-08-08 11:00:00 31 11 Este 15 Este 0 1003.2 0.4 28
2017-08-08 10:00:00 28.6 6 Sudeste 13 Sur 0 1003 0.4 37
2017-08-08 09:00:00 26.7 6 Sudeste 12 Sur 0 1002.8 0.2 44
2017-08-08 08:00:00 24.6 4 Sudoeste 15 Sudoeste 0 1002.8 0.4 42
2017-08-08 07:00:00 23.8 4 Norte 10 Noroeste 0 1002.6 -0.3 55
2017-08-08 06:00:00 23.2 4 Norte 14 Sudoeste 0 1002.6 -0.4 65
2017-08-08 05:00:00 23.4 6 Noroeste 17 Sur 0 1002.4 -1.2 65
2017-08-08 04:00:00 23.9 8 Sudoeste 16 Sur 0 1002.9 -0.8 69
2017-08-08 03:00:00 23.2 4 Sur 8 Norte 0 1003 -0.9 76
2017-08-08 02:00:00 23.6 3 Este 10 Sur 0 1003.6 0.1 73
2017-08-08 01:00:00 23.4 6 Sudoeste 8 Oeste 0 1003.7 0.5 91
2017-08-08 00:00:00 24.3 3 Norte 15 Sur 0 1003.9 0.9 89
2017-08-07 23:00:00 24.9 10 Sur 19 Sur 0 1003.5 0.7 90
2017-08-07 22:00:00 25.3 11 Sur 17 Sur 0 1003.2 0.1 90
2017-08-07 21:00:00 25.5 8 Sur 16 Sur 0 1003 -0.6 90
2017-08-07 20:00:00 26.5 10 Sur 17 Sur 0 1002.8 -1.2 85
2017-08-07 19:00:00 27.8 7 Sudeste 18 Sudeste 0 1003.1 -1.5 79
2017-08-07 18:00:00 28 10 Sudeste 16 Sudeste 0 1003.6 -1.4 78
2017-08-07 17:00:00 27.4 12 Sudeste 19 Sudeste 0 1004 -1.5 81
2017-08-07 16:00:00 27.4 13 Sudeste 19 Sur 0 1004.6 -1.3 80
2017-08-07 15:00:00 28.5 11 Sudeste 19 Sudeste 0 1005 -0.7 76
2017-08-07 14:00:00 27.8 11 Sudeste 18 Sudeste 0 1005.5 -0.2 78
2017-08-07 13:00:00 25.1 4 Nordeste 15 Nordeste 0 1005.9 0.6 86
2017-08-07 12:00:00 25.5 4 Nordeste 10 Norte 0 1005.7 0.5 84
2017-08-07 11:00:00 24.2 8 Nordeste 13 Norte 0 1005.7 0.7 87
2017-08-07 10:00:00 23.8 5 Sudeste 11 Sur 0 1005.3 0.5 95
2017-08-07 09:00:00 24 7 Sur 12 Sur 0 1005.2 0.3 96
2017-08-07 08:00:00 23.7 7 Sur 10 Sur 0 1005 0.1 97
2017-08-07 07:00:00 23.6 5 Sudeste 12 Sudeste 0 1004.8 -1.2 96
2017-08-07 06:00:00 23.4 7 Sur 14 Sur 0 1004.9 -0.8 96
2017-08-07 05:00:00 23.3 8 Sur 19 Norte 0 1004.9 -0.5 97
2017-08-07 04:00:00 22.5 11 Norte 19 Norte 0 1006 0.4 97
2017-08-07 03:00:00 22.3 7 Norte 13 Norte 0 1005.7 0.2 95
2017-08-07 02:00:00 22.4 5 Noroeste 9 Norte 0 1005.4 -0.2 92
2017-08-07 01:00:00 24.7 6 Sur 12 Sur 0 1005.6 0.7 88
2017-08-07 00:00:00 24.8 4 Sur 12 Sur 0 1005.5 1 89
2017-08-06 23:00:00 24.9 8 Sur 13 Sur 0 1005.6 1.6 88
2017-08-06 22:00:00 24.8 6 Sur 10 Sur 0 1004.9 1 89
2017-08-06 21:00:00 24.7 4 Nordeste 14 Sur 0 1004.5 0.3 88
2017-08-06 20:00:00 27.2 9 Sur 20 Sur 0 1004 -0.3 72
2017-08-06 19:00:00 27.3 12 Sur 27 Sur 0 1003.9 -0.5 67
2017-08-06 18:00:00 28.3 16 Sur 22 Sur 0 1004.2 -0.3 65
2017-08-06 17:00:00 28.6 13 Sur 19 Sur 0 1004.3 -0.6 67
2017-08-06 16:00:00 28.4 14 Sur 19 Sur 0 1004.4 -0.7 68
2017-08-06 15:00:00 28.4 9 Sur 17 Sur 0 1004.5 -0.8 64
2017-08-06 14:00:00 28.8 10 Sur 15 Sur 0 1004.9 0.3 57
2017-08-06 13:00:00 27.9 7 Sudeste 15 Nordeste 0 1005.1 0.9 64
2017-08-06 12:00:00 24.9 8 Nordeste 14 Norte 0 1005.3 1.5 67
2017-08-06 11:00:00 28.9 6 Este 15 Sur 0 1004.6 1.2 51
2017-08-06 10:00:00 26.5 12 Sur 15 Sur 0 1004.2 0.9 61
2017-08-06 09:00:00 26 6 Sur 12 Sur 0 1003.8 0.9 61
2017-08-06 08:00:00 24.8 8 Sudoeste 15 Sur 0 1003.4 0.3 59
2017-08-06 07:00:00 24.1 10 Sudoeste 16 Sudoeste 0 1003.3 -0.1 78
2017-08-06 06:00:00 25.1 6 Sudoeste 13 Sur 0 1002.9 -0.8 51
2017-08-06 05:00:00 25 3 Sudoeste 9 Sur 0 1003.1 -1 48
2017-08-06 04:00:00 25.3 10 Sur 16 Sur 0 1003.4 -0.7 48
2017-08-06 03:00:00 25.1 4 Norte 14 Sur 0 1003.7 -0.5 42
2017-08-06 02:00:00 24.9 13 Sur 17 Sur 0 1004.1 0.2 45
2017-08-06 01:00:00 25.1 12 Sur 14 Sur 0 1004.1 0.5 46
2017-08-06 00:00:00 25.3 6 Sur 9 Sur 0 1004.2 1 48
2017-08-05 23:00:00 25.3 3 Sur 5 Sur 0 1003.9 1.1 55
2017-08-05 22:00:00 24.7 5 Sudoeste 8 Norte 0 1003.6 0.5 60
2017-08-05 21:00:00 27.9 5 Sur 17 Sur 0 1003.2 -0.3 53
2017-08-05 20:00:00 29.3 12 Sur 20 Sur 0 1002.8 -1 41
2017-08-05 19:00:00 29.8 14 Sur 19 Sur 0 1003.1 -1.2 43
2017-08-05 18:00:00 29.2 14 Sur 21 Sur 0 1003.5 -1.4 48
2017-08-05 17:00:00 30.7 12 Sur 17 Sur 0 1003.8 -1.3 42
2017-08-05 16:00:00 31 9 Sudeste 15 Sudeste 0 1004.3 -0.9 40
2017-08-05 15:00:00 30.1 10 Sur 14 Sur 0 1004.9 -0.3 38
2017-08-05 14:00:00 30.4 6 Nordeste 13 Sudeste 0 1005.1 0.2 47
2017-08-05 13:00:00 30 6 Sudeste 12 Sudeste 0 1005.2 0.7 42
2017-08-05 12:00:00 27 5 Nordeste 9 Norte 0 1005.2 0.8 62
2017-08-05 11:00:00 28.1 4 Este 11 Sur 0 1004.9 0.8 58
2017-08-05 10:00:00 28 8 Sur 16 Sur 0 1004.5 0.4 53
2017-08-05 09:00:00 25.3 9 Sur 14 Sur 0 1004.4 0.6 68
2017-08-05 08:00:00 23.9 9 Sudoeste 12 Sudoeste 0 1004.1 0.2 64
2017-08-05 07:00:00 22.6 5 Sudoeste 7 Sudoeste 0 1004.1 0.1 75
2017-08-05 06:00:00 22.4 2 Sur 6 Sudoeste 0 1003.8 -0.6 84
2017-08-05 05:00:00 23 3 Sur 10 Sudoeste 0 1003.9 -0.7 83
2017-08-05 04:00:00 21.9 4 Sudoeste 5 Sudoeste 0 1004 -0.5 88
2017-08-05 03:00:00 21.9 4 Noroeste 10 Norte 0 1004.4 0 86
2017-08-05 02:00:00 24.6 7 Sur 11 Sudoeste 0 1004.6 0.6 72
2017-08-05 01:00:00 25.3 8 Sur 10 Sudoeste 0 1004.5 1.1 57
2017-08-05 00:00:00 26 6 Sur 13 Sudoeste 0 1004.4 1.4 66
2017-08-04 23:00:00 26.1 6 Sur 16 Sur 0 1004 1.1 60
2017-08-04 22:00:00 26.5 11 Sur 19 Sur 0 1003.4 0.4 52
2017-08-04 21:00:00 26.7 14 Sur 21 Sur 0 1003 -0.5 63
2017-08-04 20:00:00 27.1 15 Sur 23 Sur 0 1002.9 -1 68
2017-08-04 19:00:00 27.8 15 Sur 22 Sur 0 1003 -1.2 70
2017-08-04 18:00:00 29.6 10 Sur 17 Sur 0 1003.5 -0.7 56
2017-08-04 17:00:00 30 9 Sudeste 14 Sur 0 1003.9 -0.7 41
2017-08-04 16:00:00 31 9 Sudeste 12 Sudeste 0 1004.2 -0.7 41
2017-08-04 15:00:00 32.7 6 Sudeste 11 Sudeste 0 1004.2 -0.9 41
2017-08-04 14:00:00 33.2 5 Sudeste 9 Este 0 1004.6 -0.5 34
2017-08-04 13:00:00 30.6 5 Este 10 Este 0 1004.9 0 46
2017-08-04 12:00:00 29.1 6 Nordeste 10 Este 0 1005.1 0.5 49
2017-08-04 11:00:00 27.4 4 Nordeste 11 Nordeste 0 1005.1 0.6 54
2017-08-04 10:00:00 24.8 8 Nordeste 12 Nordeste 0 1004.9 0.5 69
2017-08-04 09:00:00 23.5 8 Nordeste 13 Nordeste 0 1004.6 0.5 79
2017-08-04 08:00:00 20.6 4 Norte 12 Norte 0 1004.5 0.5 87
2017-08-04 07:00:00 20.8 6 Norte 11 Norte 0 1004.4 0.6 87
2017-08-04 06:00:00 22.5 4 Noroeste 9 Norte 0 1004.1 0.4 81
2017-08-04 05:00:00 23.8 3 Norte 6 Norte 0 1004 -0.3 63
2017-08-04 04:00:00 25.5 7 Sur 12 Sur 0 1003.8 -0.9 60
2017-08-04 03:00:00 27.4 0 Calma 5 Noroeste 0 1003.7 -1.2 42
2017-08-04 02:00:00 27.7 2 Este 5 Oeste 0 1004.3 -0.6 46
2017-08-04 01:00:00 29.3 6 Sur 9 Sur 0 1004.7 0.2 41
2017-08-04 00:00:00 27.9 3 Oeste 9 Oeste 0 1004.9 0.5 47
2017-08-03 23:00:00 26.5 3 Oeste 11 Sur 0 1004.9 0.7 53
2017-08-03 22:00:00 26.8 7 Sudoeste 14 Sur 0 1004.5 0 57
2017-08-03 21:00:00 27.4 12 Sur 15 Sur 0 1004.4 -0.5 53
2017-08-03 20:00:00 29.1 3 Sur 8 Nordeste 0 1004.2 -1.3 48
2017-08-03 19:00:00 28.9 8 Sur 18 Sur 0 1004.5 -1.2 52
2017-08-03 18:00:00 28.9 12 Sur 21 Sur 0 1004.9 -0.9 50
2017-08-03 17:00:00 29.9 14 Sur 19 Sur 0 1005.5 -0.9 37
2017-08-03 16:00:00 31 9 Sur 14 Sur 0 1005.7 -1.1 35
2017-08-03 15:00:00 32.5 5 Sudeste 12 Sudeste 0 1005.8 -1.2 36
2017-08-03 14:00:00 30.8 6 Este 12 Este 0 1006.4 -0.6 43
2017-08-03 13:00:00 29.8 6 Este 14 Sur 0 1006.8 0.1 41
2017-08-03 12:00:00 28.6 10 Sur 13 Sur 0 1007 0.7 42
2017-08-03 11:00:00 28.5 5 Este 11 Este 0 1007 0.8 42
2017-08-03 10:00:00 27.9 4 Este 6 Este 0 1006.7 0.8 41
2017-08-03 09:00:00 26.2 3 Sudeste 8 Sur 0 1006.3 0.7 41
2017-08-03 08:00:00 23.9 4 Sudoeste 6 Sudoeste 0 1006.2 0.3 41
2017-08-03 07:00:00 24 2 Nordeste 7 Sur 0 1005.9 -0.1 40
2017-08-03 06:00:00 25.1 4 Sudoeste 10 Sudoeste 0 1005.6 -0.3 36
2017-08-03 05:00:00 25.4 6 Oeste 10 Sur 0 1005.9 -0.4 37
2017-08-03 04:00:00 27 8 Sur 13 Sur 0 1006 -0.5 34
2017-08-03 03:00:00 29.3 6 Sudoeste 27 Oeste 0 1005.9 -0.7 28
2017-08-03 02:00:00 29.2 11 Oeste 24 Oeste 0 1006.3 -0.1 29
2017-08-03 01:00:00 27.2 5 Sur 9 Oeste 0 1006.5 0.8 41
2017-08-03 00:00:00 26.5 5 Sur 7 Noroeste 0 1006.6 1.5 46
2017-08-02 23:00:00 25.9 5 Sudoeste 10 Sur 0 1006.4 1.6 45
2017-08-02 22:00:00 26.4 4 Sur 6 Sur 0 1005.7 0.7 50
2017-08-02 21:00:00 27.3 2 Sudoeste 6 Norte 0 1005.1 -0.3 52
2017-08-02 20:00:00 29.3 4 Sur 8 Sudeste 0 1004.8 -0.8 44
2017-08-02 19:00:00 28.9 7 Sudeste 14 Sur 0 1005 -0.6 48
2017-08-02 18:00:00 27.5 11 Sur 18 Sur 0 1005.4 -0.4 58
2017-08-02 17:00:00 28.5 12 Sur 26 Sur 0 1005.6 -0.6 57
2017-08-02 16:00:00 34.2 8 Sudeste 17 Este 0 1005.6 -0.9 26
2017-08-02 15:00:00 32.3 8 Este 14 Nordeste 0 1005.8 -0.5 33
2017-08-02 14:00:00 30.7 8 Este 13 Nordeste 0 1006.2 0 45
2017-08-02 13:00:00 29.9 7 Sudeste 12 Sudeste 0 1006.5 0.7 43
2017-08-02 12:00:00 29.2 8 Sudeste 12 Sudeste 0 1006.3 0.8 41
2017-08-02 11:00:00 28 6 Sur 10 Sudeste 0 1006.2 1.1 45
2017-08-02 10:00:00 27.5 5 Este 8 Este 0 1005.8 1 43
2017-08-02 09:00:00 25.4 3 Sudeste 8 Sur 0 1005.5 1.1 46
2017-08-02 08:00:00 22.2 4 Sur 11 Sur 0 1005.1 0.5 52
2017-08-02 07:00:00 22.9 8 Sur 13 Sur 0 1004.8 -0.4 51
2017-08-02 06:00:00 25 8 Sudoeste 17 Oeste 0 1004.4 -1.1 36
2017-08-02 05:00:00 24.4 5 Sur 13 Este 0 1004.6 -1.3 36
2017-08-02 04:00:00 24.6 6 Sur 13 Oeste 0 1005.2 -0.8 35
2017-08-02 03:00:00 24.8 6 Sudoeste 14 Oeste 0 1005.5 -0.3 34
2017-08-02 02:00:00 24.5 5 Sudoeste 12 Sudoeste 0 1005.9 0 34
2017-08-02 01:00:00 24.8 5 Sur 14 Sur 0 1006 0.4 32
2017-08-02 00:00:00 24.4 9 Sur 17 Sur 0 1005.8 1.2 35
2017-08-01 23:00:00 23.6 5 Sudeste 11 Este 0 1005.9 2.4 40
2017-08-01 22:00:00 25 4 Sudoeste 21 Oeste 0 1005.6 2.1 35
2017-08-01 21:00:00 26.7 10 Oeste 39 Noroeste 0 1004.6 0.7 28
2017-08-01 20:00:00 26.5 16 Noroeste 38 Oeste 0 1003.5 -0.5 35
2017-08-01 19:00:00 27.4 13 Oeste 37 Oeste 0 1003.5 -0.8 38
2017-08-01 18:00:00 27.8 9 Noroeste 31 Noroeste 0 1003.9 0 34
2017-08-01 17:00:00 27.4 6 Sudeste 18 Sur 0 1004 -0.4 34
2017-08-01 16:00:00 26.2 7 Sur 24 Sudoeste 0 1004.3 -0.1 51
2017-08-01 15:00:00 26.5 9 Sudoeste 27 Sudoeste 0 1003.9 -0.3 47
2017-08-01 14:00:00 26.5 10 Sur 29 Sudoeste 0 1004.4 0.9 43
2017-08-01 13:00:00 25.6 10 Oeste 36 Oeste 0 1004.4 1.1 47
2017-08-01 12:00:00 25.4 12 Sudoeste 33 Noroeste 0 1004.2 1.5 42
2017-08-01 11:00:00 25 8 Oeste 24 Oeste 0 1003.5 1.5 44
2017-08-01 10:00:00 23.8 4 Este 15 Sudeste 0 1003.3 1.6 57
2017-08-01 09:00:00 23.1 11 Noroeste 44 Noroeste 0 1002.7 1 43
2017-08-01 08:00:00 21.4 27 Noroeste 49 Noroeste 0 1002 0.5 67
2017-08-01 07:00:00 22.4 24 Noroeste 40 Noroeste 0 1001.7 0.4 50
2017-08-01 06:00:00 22.8 20 Noroeste 49 Noroeste 0 1001.7 0.7 45
2017-08-01 05:00:00 22.6 30 Noroeste 50 Oeste 0 1001.5 0 48
2017-08-01 04:00:00 22.5 29 Noroeste 54 Noroeste 0 1001.3 -1.1 52
2017-08-01 03:00:00 23.9 28 Noroeste 46 Oeste 0 1001 -0.5 44
2017-08-01 02:00:00 24.4 12 Oeste 36 Sudoeste 0 1001.5 0.9 26
2017-08-01 01:00:00 23.3 6 Oeste 18 Oeste 0 1002.4 2.1 45
2017-08-01 00:00:00 24.7 6 Sudeste 22 Sur 0 1001.5 1.6 47
2017-07-31 23:00:00 25 3 Este 31 Noroeste 0 1000.6 1.8 49
2017-07-31 22:00:00 27.5 9 Nordeste 46 Oeste 0 1000.3 1.5 30
2017-07-31 21:00:00 27.7 18 Oeste 53 Noroeste 0 999.9 1 30
2017-07-31 20:00:00 31.9 13 Oeste 39 Noroeste 0 998.8 -0.3 21
2017-07-31 19:00:00 33.1 10 Oeste 26 Oeste 0 998.8 -0.8 23
2017-07-31 18:00:00 32.3 5 Norte 22 Noroeste 0 998.9 -1.3 32
2017-07-31 17:00:00 32.7 10 Noroeste 28 Oeste 0 999.1 -1.4 32
2017-07-31 16:00:00 33.3 9 Oeste 30 Noroeste 0 999.6 -0.8 31
2017-07-31 15:00:00 31.1 8 Norte 22 Norte 0 1000.2 -0.5 41
2017-07-31 14:00:00 30.8 8 Noroeste 21 Noroeste 0 1000.5 0.3 46
2017-07-31 13:00:00 29.6 8 Norte 27 Oeste 0 1000.4 0.3 50
2017-07-31 12:00:00 28.4 10 Noroeste 24 Noroeste 0 1000.7 0.5 54
2017-07-31 11:00:00 29.3 5 Este 9 Nordeste 0 1000.2 0.6 46
2017-07-31 10:00:00 28.1 5 Sudeste 11 Noroeste 0 1000.1 1.1 47
2017-07-31 09:00:00 26.2 3 Noroeste 8 Noroeste 0 1000.2 1.5 54
2017-07-31 08:00:00 23.6 3 Sur 11 Sudoeste 0 999.6 0.3 50
2017-07-31 07:00:00 23.7 4 Oeste 13 Sur 0 999 -0.7 43
2017-07-31 06:00:00 24.9 9 Sur 12 Sur 0 998.7 -2 43
2017-07-31 05:00:00 23.8 0 Calma 10 Sudoeste 0 999.3 -1.1 48
2017-07-31 04:00:00 24 3 Noroeste 9 Oeste 0 999.7 -1.1 46
2017-07-31 03:00:00 24.9 7 Sur 13 Sur 0 1000.7 0 56
2017-07-31 02:00:00 24.4 5 Sur 10 Sur 0 1000.4 -0.2 62
2017-07-31 01:00:00 24.2 4 Sudoeste 9 Sudoeste 0 1000.8 0.5 62
2017-07-31 00:00:00 24.1 4 Noroeste 6 Sudoeste 0 1000.7 0.5 61
2017-07-30 23:00:00 24.5 3 Sudoeste 7 Sur 0 1000.6 0.5 58
2017-07-30 22:00:00 24.9 2 Norte 5 Noroeste 0 1000.3 0 69
2017-07-30 21:00:00 26.6 2 Noroeste 11 Nordeste 0 1000.2 -0.6 68
2017-07-30 20:00:00 28.9 3 Sudeste 8 Este 0 1000.1 -1.4 61
2017-07-30 19:00:00 29.8 5 Sudeste 13 Sur 0 1000.3 -1.8 58
2017-07-30 18:00:00 28.5 10 Sur 18 Sur 0 1000.8 -1.6 65
2017-07-30 17:00:00 28 15 Sur 20 Sur 0 1001.5 -1.3 67
2017-07-30 16:00:00 30 10 Sudeste 17 Sudeste 0 1002.1 -0.9 46
2017-07-30 15:00:00 30.2 11 Sudeste 18 Sudoeste 0 1002.4 -0.6 43
2017-07-30 14:00:00 29.5 9 Sur 15 Sur 0 1002.8 0.1 47
2017-07-30 13:00:00 28.8 9 Sur 16 Sur 0 1003 0 56
2017-07-30 12:00:00 28.5 9 Sudeste 14 Sudeste 0 1003 0.1 55
2017-07-30 11:00:00 28.2 5 Este 9 Nordeste 0 1002.7 -0.1 60
2017-07-30 10:00:00 27.3 6 Sudeste 8 Sudeste 0 1003 0.2 62
2017-07-30 09:00:00 24.7 4 Nordeste 8 Sur 0 1002.9 0.1 63
2017-07-30 08:00:00 22.4 3 Sudoeste 6 Sudoeste 0 1002.8 0 66
2017-07-30 07:00:00 21.9 2 Sudeste 10 Sudoeste 0 1002.8 -0.4 72
2017-07-30 06:00:00 22.9 7 Sudoeste 14 Sur 0 1002.8 -0.8 81
2017-07-30 05:00:00 23.3 6 Sudoeste 17 Sur 0 1002.8 -1.3 73
2017-07-30 04:00:00 24.1 11 Sur 14 Sur 0 1003.2 -1 73
2017-07-30 03:00:00 24.7 8 Sur 11 Sur 0 1003.6 -1 61
2017-07-30 02:00:00 24.1 3 Sur 7 Norte 0 1004.1 -0.4 64
2017-07-30 01:00:00 24.6 4 Sudoeste 8 Sur 0 1004.2 0.1 64
2017-07-30 00:00:00 24.2 3 Noroeste 8 Norte 0 1004.6 0.8 68
2017-07-29 23:00:00 25.3 3 Sur 10 Sur 0 1004.5 0.7 64
2017-07-29 22:00:00 26 5 Sur 9 Sur 0 1004.1 0 63
2017-07-29 21:00:00 27.1 6 Sur 16 Sur 0 1003.8 -0.8 56
2017-07-29 20:00:00 28.1 10 Sur 16 Sur 0 1003.8 -1.2 56
2017-07-29 19:00:00 28.6 9 Sur 22 Sur 0 1004.1 -1.3 48
2017-07-29 18:00:00 29.1 14 Sur 21 Sur 0 1004.6 -1.2 52
2017-07-29 17:00:00 30.4 12 Sur 17 Sur 0 1005 -1.1 33
2017-07-29 16:00:00 32.2 8 Sudeste 14 Sudeste 0 1005.4 -0.8 28
2017-07-29 15:00:00 31.7 9 Sudeste 15 Sudeste 0 1005.8 -0.2 28
2017-07-29 14:00:00 31.8 8 Sudeste 15 Sudeste 0 1006.1 0.2 30
2017-07-29 13:00:00 30.6 7 Este 15 Sudeste 0 1006.2 0.5 46
2017-07-29 12:00:00 28 7 Nordeste 11 Este 0 1006 0.7 54
2017-07-29 11:00:00 28.3 6 Este 9 Este 0 1005.9 0.7 52
2017-07-29 10:00:00 27.8 5 Este 8 Este 0 1005.7 0.9 52
2017-07-29 09:00:00 25.2 3 Nordeste 6 Nordeste 0 1005.3 0.9 63
2017-07-29 08:00:00 23 3 Sudoeste 6 Sudoeste 0 1005.2 1.2 72
2017-07-29 07:00:00 22.8 5 Sudoeste 8 Sudoeste 0 1004.8 0.6 69
2017-07-29 06:00:00 23.9 5 Sur 10 Sur 0 1004.4 0.1 67
2017-07-29 05:00:00 25.3 7 Sudoeste 12 Sudoeste 0 1004 -0.6 44
2017-07-29 04:00:00 25.1 9 Sudoeste 13 Sudoeste 0 1004.2 -0.8 57
2017-07-29 03:00:00 25.7 3 Sur 9 Sur 0 1004.3 -0.5 48
2017-07-29 02:00:00 25.2 4 Sudoeste 10 Sudoeste 0 1004.6 0.1 42
2017-07-29 01:00:00 25.1 3 Noroeste 5 Oeste 0 1005 1.1 53
2017-07-29 00:00:00 25.1 3 Noroeste 8 Oeste 0 1004.8 1.3 54
2017-07-28 23:00:00 26.1 6 Sur 12 Sur 0 1004.5 1.1 74
2017-07-28 22:00:00 26.2 5 Sur 12 Sur 0 1003.9 0.5 68
2017-07-28 21:00:00 28.1 5 Sur 10 Sur 0 1003.5 -0.2 66
2017-07-28 20:00:00 29.2 9 Sur 12 Sur 0 1003.4 -0.8 61
2017-07-28 19:00:00 30.5 6 Sur 12 Sur 0 1003.4 -0.9 58
2017-07-28 18:00:00 30.5 5 Sur 10 Sur 0 1003.7 -1 60
2017-07-28 17:00:00 29.3 7 Sudeste 17 Sur 0 1004.2 -0.9 64
2017-07-28 16:00:00 30.7 8 Sur 13 Sur 0 1004.3 -0.9 60
2017-07-28 15:00:00 29.7 9 Sur 13 Sur 0 1004.7 -0.4 59
2017-07-28 14:00:00 29.6 4 Sudeste 14 Sur 0 1005.1 0.1 61
2017-07-28 13:00:00 28.7 5 Sudeste 13 Sudeste 0 1005.2 0.2 64
2017-07-28 12:00:00 28.1 9 Sur 12 Sur 0 1005.1 0.3 64
2017-07-28 11:00:00 27.5 5 Este 8 Este 0 1005 0.5 64
2017-07-28 10:00:00 24.3 6 Este 9 Este 0 1005 0.7 74
2017-07-28 09:00:00 24 4 Nordeste 8 Sur 0 1004.8 0.7 77
2017-07-28 08:00:00 22.2 4 Sudoeste 9 Sur 0 1004.5 0.4 87
2017-07-28 07:00:00 22.1 5 Sudoeste 8 Sur 0 1004.3 0 84
2017-07-28 06:00:00 22.1 4 Sur 11 Sur 0 1004.1 -0.4 79
2017-07-28 05:00:00 22.5 7 Sur 11 Sur 0 1004.1 -0.5 86
2017-07-28 04:00:00 22.6 7 Sudoeste 13 Sur 0 1004.3 -0.2 85
2017-07-28 03:00:00 22.7 7 Sudoeste 10 Sudoeste 0 1004.5 0 85
2017-07-28 02:00:00 22.9 6 Sur 14 Sur 0 1004.6 0.5 83
2017-07-28 01:00:00 23.1 8 Sudoeste 14 Sudoeste 0 1004.5 0.6 84
2017-07-28 00:00:00 23 10 Sudoeste 15 Sur 0 1004.5 1.3 83
2017-07-27 23:00:00 23.6 6 Sur 13 Sudoeste 0 1004.1 0.9 83
2017-07-27 22:00:00 23.8 7 Sur 10 Sur 0 1003.9 0.6 86
2017-07-27 21:00:00 24.4 9 Sur 13 Sudeste 0 1003.2 -0.5 83
2017-07-27 20:00:00 25.2 4 Norte 13 Sur 0 1003.2 -1.1 79
2017-07-27 19:00:00 26.3 10 Sur 18 Sur 0 1003.3 -1.5 72
2017-07-27 18:00:00 26.5 12 Sur 21 Sur 0 1003.7 -1.6 72
2017-07-27 17:00:00 26.6 12 Sur 22 Sur 0 1004.3 -1.4 71
2017-07-27 16:00:00 26.5 10 Sur 22 Sur 0 1004.8 -1.2 72
2017-07-27 15:00:00 26.1 12 Sur 21 Sur 0 1005.3 -0.9 73
2017-07-27 14:00:00 26.3 10 Sur 19 Sur 0 1005.7 -0.5 72
2017-07-27 13:00:00 25.8 10 Sudeste 20 Sur 0 1006 0 74
2017-07-27 12:00:00 25.3 10 Sudeste 18 Sur 0 1006.2 0.4 73
2017-07-27 11:00:00 25.4 10 Sudeste 16 Sudeste 0 1006.2 0.9 74
2017-07-27 10:00:00 24.5 10 Sudeste 15 Sur 0 1006 1 77
2017-07-27 09:00:00 22.9 8 Sudeste 14 Sudeste 0 1005.8 1.1 86
2017-07-27 08:00:00 22.4 8 Sudeste 16 Sudeste 0 1005.3 0.7 85
2017-07-27 07:00:00 21.8 9 Sudeste 14 Sudeste 0 1005 0.3 91
2017-07-27 06:00:00 21.7 5 Sudeste 11 Sudeste 0 1004.7 -0.2 95
2017-07-27 05:00:00 21.9 8 Sudeste 13 Sudeste 0 1004.6 -0.2 94
2017-07-27 04:00:00 21.5 4 Este 11 Sur 0 1004.7 -0.1 94
2017-07-27 03:00:00 21.6 2 Norte 8 Sudeste 0 1004.9 0.3 93
2017-07-27 02:00:00 22.1 5 Sur 12 Sur 0 1004.8 0.5 93
2017-07-27 01:00:00 22.3 7 Sur 10 Sur 0 1004.8 1.2 92
2017-07-27 00:00:00 22.6 6 Sudoeste 11 Sur 0 1004.6 1.3 87
2017-07-26 23:00:00 23 6 Sur 14 Sur 0 1004.3 1.3 85
2017-07-26 22:00:00 23.4 9 Sur 19 Sur 0 1003.6 0.3 84
2017-07-26 21:00:00 23.5 14 Sur 19 Sur 0 1003.3 -0.3 83
2017-07-26 20:00:00 24.6 13 Sur 20 Sur 0 1003 -1.1 77
2017-07-26 19:00:00 25.5 13 Sur 19 Sur 0 1003.3 -1.2 73
2017-07-26 18:00:00 26 8 Sudeste 16 Sur 0 1003.6 -1.5 70
2017-07-26 17:00:00 26.1 9 Sur 17 Sudeste 0 1004.1 -1.5 70
2017-07-26 16:00:00 26.5 10 Este 19 Este 0 1004.5 -1.4 69
2017-07-26 15:00:00 26.6 8 Este 18 Este 0 1005.1 -0.6 68
2017-07-26 14:00:00 25.9 9 Sudeste 18 Sudeste 0 1005.6 0.1 70
2017-07-26 13:00:00 25.3 9 Sur 16 Sudeste 0 1005.9 0.7 70
2017-07-26 12:00:00 24.5 7 Sudeste 15 Sudeste 0 1005.7 0.8 73
2017-07-26 11:00:00 23.2 8 Este 14 Este 0 1005.5 1.2 79
2017-07-26 10:00:00 21.5 6 Este 11 Nordeste 0 1005.2 1.1 87
2017-07-26 09:00:00 20.6 5 Este 11 Sudeste 0 1004.9 0.8 91
2017-07-26 08:00:00 20.3 5 Sudeste 16 Sudoeste 0 1004.3 0.3 94
2017-07-26 07:00:00 20 7 Sur 10 Sur 0 1004.1 0.1 97
2017-07-26 06:00:00 19.8 3 Oeste 8 Nordeste 0 1004.1 0.1 98
2017-07-26 05:00:00 19.8 2 Noroeste 7 Norte 0 1004 -0.1 97
2017-07-26 04:00:00 20 4 Sudoeste 8 Sur 0 1004 0.3 96
2017-07-26 03:00:00 20.2 3 Noroeste 6 Nordeste 0 1004 0.4 96
2017-07-26 02:00:00 20.3 5 Norte 9 Nordeste 0 1004.1 0.9 89
2017-07-26 01:00:00 21.1 4 Norte 6 Nordeste 0 1003.7 1.1 83
2017-07-26 00:00:00 22.3 4 Sudoeste 13 Sur 0 1003.6 1.3 79
2017-07-25 23:00:00 23.1 8 Sur 10 Sudoeste 0 1003.2 1 80
2017-07-25 22:00:00 22.8 0 Calma 5 Norte 0 1002.6 0.3 85
2017-07-25 21:00:00 23.5 5 Norte 10 Nordeste 0 1002.3 -0.3 83
2017-07-25 20:00:00 25 5 Nordeste 12 Nordeste 0 1002.2 -0.8 74
2017-07-25 19:00:00 25.3 6 Nordeste 14 Nordeste 0 1002.3 -1.3 74
2017-07-25 18:00:00 25.1 10 Norte 17 Norte 0 1002.6 -1.3 77
2017-07-25 17:00:00 25.4 13 Nordeste 21 Nordeste 0 1003 -1.4 74
2017-07-25 16:00:00 25.2 14 Norte 26 Nordeste 0 1003.6 -1 75
2017-07-25 15:00:00 27.2 17 Norte 27 Nordeste 0 1003.9 -0.6 63
2017-07-25 14:00:00 26.6 18 Norte 31 Norte 0 1004.4 0.3 66
2017-07-25 13:00:00 24.7 19 Norte 31 Norte 0 1004.6 0.8 74
2017-07-25 12:00:00 24.3 18 Nordeste 30 Noroeste 0 1004.5 1.3 75
2017-07-25 11:00:00 25.1 17 Norte 28 Noroeste 0 1004.1 1.3 68
2017-07-25 10:00:00 25.2 10 Nordeste 24 Norte 0 1003.8 1.4 67
2017-07-25 09:00:00 26.5 4 Nordeste 7 Este 0 1003.2 1.2 52
2017-07-25 08:00:00 25.1 4 Sudoeste 8 Sudoeste 0 1002.8 0.7 51
2017-07-25 07:00:00 25.2 5 Sudoeste 8 Sudoeste 0 1002.4 -0.3 49
2017-07-25 06:00:00 27.7 7 Sudeste 26 Oeste 0 1002 -1.4 40
2017-07-25 05:00:00 29.7 12 Oeste 37 Noroeste 0 1002.1 -1.8 33
2017-07-25 04:00:00 29.9 13 Noroeste 28 Oeste 0 1002.7 -1.5 32
2017-07-25 03:00:00 30.4 11 Oeste 29 Noroeste 0 1003.4 -1.1 29
2017-07-25 02:00:00 32.2 15 Noroeste 30 Noroeste 0 1003.9 -0.4 24
2017-07-25 01:00:00 31.7 9 Noroeste 28 Noroeste 0 1004.2 0.2 29
2017-07-25 00:00:00 32 13 Oeste 38 Oeste 0 1004.5 0.6 25
2017-07-24 23:00:00 31.3 16 Noroeste 33 Oeste 0 1004.3 0.4 25
2017-07-24 22:00:00 31.9 13 Noroeste 33 Oeste 0 1004 -0.1 23
2017-07-24 21:00:00 31.1 12 Oeste 24 Oeste 0 1003.9 -0.5 29
2017-07-24 20:00:00 33.8 10 Oeste 28 Noroeste 0 1003.9 -0.9 25
2017-07-24 19:00:00 34.9 16 Noroeste 28 Oeste 0 1004.1 -1.2 25
2017-07-24 18:00:00 36.1 10 Oeste 24 Oeste 0 1004.4 -1.2 27
2017-07-24 17:00:00 36.8 13 Noroeste 30 Oeste 0 1004.8 -1.3 24
2017-07-24 16:00:00 36.7 12 Oeste 31 Noroeste 0 1005.3 -1.1 23
2017-07-24 15:00:00 36.9 15 Noroeste 27 Noroeste 0 1005.6 -1 22
2017-07-24 14:00:00 36.3 8 Noroeste 26 Noroeste 0 1006.1 -0.4 24
2017-07-24 13:00:00 33.7 6 Sudeste 13 Sudeste 0 1006.4 -0.1 30
2017-07-24 12:00:00 30.6 9 Sudeste 16 Sur 0 1006.6 0.3 35
2017-07-24 11:00:00 29.8 8 Sur 15 Sur 0 1006.5 0.3 39
2017-07-24 10:00:00 29.1 6 Sur 12 Sur 0 1006.5 0.4 40
2017-07-24 09:00:00 26.4 4 Nordeste 8 Nordeste 0 1006.3 0.3 47
2017-07-24 08:00:00 25.7 4 Sudeste 19 Noroeste 0 1006.2 0 44
2017-07-24 07:00:00 24.5 3 Nordeste 10 Sur 0 1006.1 -0.2 42
2017-07-24 06:00:00 26.1 8 Sur 11 Sur 0 1006 -0.5 34
2017-07-24 05:00:00 25.7 4 Sur 12 Oeste 0 1006.2 -0.9 31
2017-07-24 04:00:00 26.7 6 Sur 15 Sur 0 1006.3 -0.9 34
2017-07-24 03:00:00 26.8 7 Sur 15 Sur 0 1006.5 -0.7 37
2017-07-24 02:00:00 27.1 8 Sur 19 Noroeste 0 1007.1 0.1 40
2017-07-24 01:00:00 26.8 4 Sur 9 Sur 0 1007.2 1 36
2017-07-24 00:00:00 25 3 Este 9 Oeste 0 1007.2 1.2 55
2017-07-23 23:00:00 25.2 4 Sur 9 Sur 0 1007 1.2 60
2017-07-23 22:00:00 25.2 0 Calma 9 Sur 0 1006.2 0.3 65
2017-07-23 21:00:00 27 5 Sur 8 Sur 0 1006 -0.2 62
2017-07-23 20:00:00 28.1 4 Norte 9 Norte 0 1005.8 -0.7 50
2017-07-23 19:00:00 29.1 6 Sudeste 10 Este 0 1005.9 -1 47
2017-07-23 18:00:00 29.3 6 Sudeste 15 Sur 0 1006.2 -1.1 47
2017-07-23 17:00:00 29.8 9 Sur 14 Sur 0 1006.5 -1.2 42
2017-07-23 16:00:00 29.6 9 Sudeste 12 Sur 0 1006.9 -0.6 41
2017-07-23 15:00:00 29.8 6 Sudeste 12 Sudeste 0 1007.3 -0.2 37
2017-07-23 14:00:00 29.7 9 Nordeste 14 Nordeste 0 1007.7 0.6 39
2017-07-23 13:00:00 29 8 Nordeste 14 Nordeste 0 1007.5 0.8 42
2017-07-23 12:00:00 28.2 5 Este 13 Este 0 1007.5 1.1 42
2017-07-23 11:00:00 27.3 7 Sudeste 12 Sur 0 1007.1 1 38
2017-07-23 10:00:00 27 4 Nordeste 10 Sur 0 1006.7 0.9 39
2017-07-23 09:00:00 25.1 4 Sur 8 Sur 0 1006.4 0.7 39
2017-07-23 08:00:00 21.8 2 Sudoeste 12 Sur 0 1006.1 0.7 44
2017-07-23 07:00:00 21.9 7 Sudoeste 11 Sudoeste 0 1005.8 0.4 40
2017-07-23 06:00:00 21.8 4 Sur 6 Sudoeste 0 1005.7 0.1 46
2017-07-23 05:00:00 22.1 5 Sur 8 Oeste 0 1005.4 -0.3 47
2017-07-23 04:00:00 21.9 3 Oeste 12 Oeste 0 1005.4 -0.3 44
2017-07-23 03:00:00 22.6 5 Sudoeste 14 Sur 0 1005.6 -0.2 47
2017-07-23 02:00:00 24.2 10 Sur 19 Noroeste 0 1005.7 0.5 49
2017-07-23 01:00:00 24.4 3 Sur 17 Oeste 0 1005.7 1.6 33
2017-07-23 00:00:00 23.9 6 Sur 9 Sur 0 1005.8 2.3 46